Barbados Meteorological Services
Auto gathered TAF list
Powered by Apparatus software
For Flight AA1089
Contact Number 1-(246)-535-0021/2/3/4/5/6
WEB: http://www.barbadosweather.org

**********************************************

2018/08/18 18:09
TAF TLPL 181700Z 1818/1918 10018KT 9999 SCT023
TEMPO 1818/1906 SHRA FEW018CB BKN020 PROB30
TEMPO 1818/1824 3000 TSRA SCT015CB BKN018 BKN038


**********************************************
2018/08/18 18:27
TAF TJSJ 181723Z 1818/1918 07015KT P6SM VCSH SCT025 SCT040
FM182300 10008KT P6SM FEW028 SCT050


**********************************************
2018/08/18 18:13
TAF TFFR 181700Z 1818/1918 13014KT 9999 SCT030 SCT060
TEMPO 1902/1918 3000 SHRA FEW011CB SCT020TCU PROB30
TEMPO 1915/1918 1200 -TSRA SCT010CB BKN015


**********************************************
2018/08/18 18:59
TAF TBPB 181700Z 1818/1918 10015KT 9999 SCT018 PROB40
TEMPO 1818/1824 SHRA BKN015 FEW016CB


**********************************************
2018/08/18 18:20
TAF TAPA 181700Z 1818/1918 12012KT 9999 SCT022


**********************************************
2018/08/18 18:09
TAF MYNN 181700Z 1818/1918 09012KT 9999 VCSH SCT018 BKN200


**********************************************
2018/08/18 18:48
TAF MTPP 181700Z 1818/1918 VRB02KT 9999 FEW030
BECMG 1819/1823 27010KT FEW024CB SCT032 PROB40
TEMPO 1902/1906 4500 SHRA SCT022CB BKN050
BECMG 1908/1912 VRB02KT 9000 FEW020
BECMG 1914/1918 09010KT


**********************************************
2018/08/18 18:15
TAF MDSD 181600Z 1818/1918 13010KT 9999 FEW020CB SCT022
TEMPO 1818/1823 7000 -TSRA FEW018CB BKN020 BKN070
BECMG 1823/1901 03004KT PROB30 1900/1906 6000 -TSRA FEW016CB BKN018 OVC070


**********************************************
2018/08/18 18:24
TAF KSFB 181722Z 1818/1918 16007KT P6SM SCT045
FM181900 12009KT P6SM SCT050
FM190100 16004KT P6SM SKC
FM191400 18004KT P6SM FEW035


**********************************************
2018/08/18 18:38
TAF KPHL 181731Z 1818/1924 27010KT P6SM VCTS SCT035 BKN080CB
TEMPO 1822/1901 3SM TSRA OVC035CB
FM190100 31006KT P6SM OVC060
FM191000 02005KT P6SM BKN025
FM191300 05007KT P6SM OVC015


**********************************************
2018/08/18 18:23
TAF KPBI 181720Z 1818/1918 12014KT P6SM FEW030 SCT150
FM190000 12004KT P6SM SCT025 SCT250
FM190400 00000KT P6SM FEW250
FM191100 14005KT P6SM VCSH SCT035


**********************************************
2018/08/18 18:22
TAF KOPF 181720Z 1818/1918 12010KT P6SM FEW080 SCT200
FM190000 00000KT P6SM SCT025 SCT250
FM191100 13005KT P6SM VCSH SCT035


**********************************************


**********************************************
2018/08/18 18:22
TAF KMIA 181720Z 1818/1924 12012KT P6SM FEW030 SCT070 SCT200
FM190000 12003KT P6SM SCT025 SCT250
FM191100 13005KT P6SM VCSH SCT035
FM191900 13008KT P6SM FEW040


**********************************************
2018/08/18 18:24
TAF KMCO 181722Z 1818/1924 15005KT P6SM FEW045 FEW250
FM181900 13008KT P6SM SCT050
FM190100 16004KT P6SM SKC
FM191400 17004KT P6SM FEW035
FM191900 14008KT P6SM VCTS SCT040CB


**********************************************
2018/08/18 18:45
TAF KJFK 181740Z 1818/1924 23010KT P6SM VCTS SCT025CB SCT050 SCT100
FM182100 28015G30KT 3SM TSRA BKN025CB
FM190000 34008KT 6SM SHRA BKN040
FM190200 01008KT P6SM VCSH BKN040
FM190700 03011KT P6SM VCSH BKN015
FM191200 04014KT P6SM VCSH BKN025
FM192100 04011KT P6SM SCT025 BKN040


**********************************************
2018/08/18 18:42
TAF KJAX 181739Z 1818/1918 20005KT P6SM SCT035 BKN250
FM182000 17008KT P6SM VCTS SCT045CB SCT250
FM190100 19004KT P6SM SCT060 SCT250
FM191200 23003KT P6SM FEW030 SCT250


**********************************************
2018/08/18 18:23
TAF KFLL 181720Z 1818/1924 14011KT P6SM FEW070 FEW080 BKN200
FM190000 11003KT P6SM SCT025 SCT250
FM191100 13006KT P6SM VCSH SCT035
FM191900 13008KT P6SM FEW040


**********************************************
2018/08/18 18:42
TAF KEWR 181740Z 1818/1924 28015G25KT 4SM TSRA BKN025CB
FM181930 27011KT P6SM VCTS SCT025CB SCT050 SCT100
FM182100 28015G30KT 3SM TSRA BKN025CB
FM190000 34007KT 6SM SHRA BKN040
FM190200 31008KT P6SM VCSH BKN040
FM190700 02010KT P6SM VCSH BKN015
FM191200 03013KT P6SM VCSH BKN025
FM192100 04010KT P6SM SCT025 BKN040


**********************************************
2018/08/18 18:24
TAF KCLT 181723Z 1818/1924 23011G18KT P6SM VCSH SCT025 BKN035
TEMPO 1820/1824 3SM TSRA OVC025CB
FM190300 23006KT P6SM SCT040 BKN150
FM190900 23004KT 6SM BR SCT008 BKN015
FM191300 23006KT P6SM BKN025
FM191500 24007KT P6SM BKN035 PROB30 1919/1923 4SM -TSRA OVC025CB


**********************************************
2018/08/18 18:22
TAF KATL 181720Z 1818/1924 23008KT P6SM VCSH SCT025 BKN040
TEMPO 1819/1823 4SM TSRA BKN030CB
FM190200 22006KT P6SM VCSH SCT025 SCT050 BKN200
FM190900 24005KT P6SM BKN007
FM191500 23007KT P6SM VCSH BKN015
FM191800 23007KT P6SM VCSH SCT025 BKN040 PROB30 1918/1924 4SM TSRA BKN030CB


**********************************************